Time;durP1;ratioP1;P1;durP2;ratioP2;P2;SDS_P1;SDS_P2;PMS_P1;PMS_P2;Temp;Humidity;BMP_temperature;BMP_pressure;BME280_temperature;BME280_humidity;BME280_pressure;Samples;Min_cycle;Max_cycle;Signal;HPM_P1;HPM_P2
2021/03/01 00:00:10;;;;;;;70.70;11.10;;;4.40;91.10;;;;;;5074253;28;20294;-70
2021/03/01 00:02:36;;;;;;;86.30;11.00;;;4.50;91.00;;;;;;5074884;28;20303;-70
2021/03/01 00:05:03;;;;;;;83.00;11.20;;;4.50;91.00;;;;;;5073398;28;20356;-71
2021/03/01 00:07:29;;;;;;;78.60;10.97;;;4.50;91.10;;;;;;5074366;28;20413;-70
2021/03/01 00:09:54;;;;;;;93.27;11.90;;;4.50;90.90;;;;;;5074264;28;20352;-70
2021/03/01 00:12:20;;;;;;;72.33;11.00;;;4.40;90.90;;;;;;5073609;28;20409;-70
2021/03/01 00:14:46;;;;;;;64.63;10.97;;;4.40;91.00;;;;;;5074021;28;20045;-70
2021/03/01 00:17:11;;;;;;;107.20;12.53;;;4.40;91.10;;;;;;5074175;28;20394;-70
2021/03/01 00:19:37;;;;;;;55.03;9.93;;;4.40;91.10;;;;;;5073712;28;20594;-69
2021/03/01 00:22:02;;;;;;;94.73;12.43;;;4.30;91.10;;;;;;5073707;28;20052;-70
2021/03/01 00:24:29;;;;;;;58.43;9.53;;;4.40;91.20;;;;;;5074139;28;20049;-70
2021/03/01 00:26:54;;;;;;;96.37;13.10;;;4.40;91.10;;;;;;5072853;28;20361;-70
2021/03/01 00:29:20;;;;;;;86.77;12.33;;;4.40;91.20;;;;;;5074114;28;20193;-70
2021/03/01 00:31:45;;;;;;;53.77;10.20;;;4.40;91.10;;;;;;5073187;28;20485;-70
2021/03/01 00:34:11;;;;;;;100.87;13.20;;;4.40;91.10;;;;;;5074110;28;20054;-70
2021/03/01 00:36:37;;;;;;;60.00;11.00;;;4.40;91.10;;;;;;5074096;28;20097;-70
2021/03/01 00:39:03;;;;;;;117.50;14.87;;;4.40;91.20;;;;;;5072522;28;20110;-70
2021/03/01 00:41:29;;;;;;;86.43;13.73;;;4.40;91.20;;;;;;5074130;28;20044;-70
2021/03/01 00:43:55;;;;;;;72.37;13.23;;;4.40;91.30;;;;;;5073737;28;20370;-70
2021/03/01 00:46:20;;;;;;;77.10;11.50;;;4.40;91.30;;;;;;5072953;28;20131;-70
2021/03/01 00:48:46;;;;;;;112.63;13.90;;;4.40;91.20;;;;;;5073570;28;20045;-69
2021/03/01 00:51:12;;;;;;;97.87;13.47;;;4.40;91.10;;;;;;5073213;28;20190;-70
2021/03/01 00:53:37;;;;;;;78.03;11.70;;;4.30;91.00;;;;;;5072468;28;20048;-70
2021/03/01 00:56:03;;;;;;;88.00;10.80;;;4.30;91.10;;;;;;5073120;28;20044;-70
2021/03/01 00:58:29;;;;;;;85.50;12.07;;;4.30;91.20;;;;;;5073786;28;20045;-69
2021/03/01 01:00:55;;;;;;;154.40;13.60;;;4.20;91.20;;;;;;5072741;28;20482;-70
2021/03/01 01:03:20;;;;;;;78.87;9.27;;;4.20;91.10;;;;;;5073378;28;20121;-70
2021/03/01 01:05:47;;;;;;;107.43;9.57;;;4.20;91.20;;;;;;5073167;28;20052;-69
2021/03/01 01:08:13;;;;;;;107.57;10.03;;;4.10;91.30;;;;;;5072135;28;20060;-69
2021/03/01 01:10:39;;;;;;;118.60;10.70;;;4.10;91.60;;;;;;5072868;28;20348;-70
2021/03/01 01:13:06;;;;;;;111.37;10.40;;;4.00;91.20;;;;;;5073178;28;20306;-69
2021/03/01 01:15:32;;;;;;;175.20;13.70;;;4.00;91.20;;;;;;5072404;28;20322;-69
2021/03/01 01:17:58;;;;;;;187.23;14.43;;;3.90;91.20;;;;;;5073042;28;20307;-69
2021/03/01 01:20:24;;;;;;;80.07;10.03;;;3.80;91.30;;;;;;5073004;28;20290;-69
2021/03/01 01:22:49;;;;;;;60.53;9.60;;;3.70;91.40;;;;;;5072374;28;20390;-69
2021/03/01 01:25:16;;;;;;;135.43;11.30;;;3.70;91.60;;;;;;5072474;28;20072;-69
2021/03/01 01:27:45;;;;;;;134.67;10.50;;;3.80;91.60;;;;;;5072878;28;20667;-69
2021/03/01 01:30:13;;;;;;;231.03;12.87;;;3.70;91.50;;;;;;5072177;28;20307;-69
2021/03/01 01:32:39;;;;;;;119.90;9.77;;;3.60;91.30;;;;;;5072849;28;20388;-69
2021/03/01 01:35:07;;;;;;;119.87;9.37;;;3.50;91.50;;;;;;5072136;28;20295;-69
2021/03/01 01:37:33;;;;;;;42.20;7.43;;;3.50;91.70;;;;;;5072931;28;20047;-69
2021/03/01 01:39:59;;;;;;;119.93;11.47;;;3.40;91.60;;;;;;5072503;28;20306;-69
2021/03/01 01:42:25;;;;;;;100.80;11.20;;;3.40;91.70;;;;;;5071938;28;20667;-69
2021/03/01 01:44:51;;;;;;;121.40;11.60;;;3.50;91.70;;;;;;5072544;28;20302;-69
2021/03/01 01:47:16;;;;;;;66.53;9.43;;;3.50;91.70;;;;;;5072385;28;20079;-69
2021/03/01 01:49:42;;;;;;;88.90;11.13;;;3.50;91.60;;;;;;5071823;28;20074;-70
2021/03/01 01:52:08;;;;;;;77.50;10.97;;;3.50;91.70;;;;;;5072407;28;20057;-69
2021/03/01 01:54:35;;;;;;;88.73;10.07;;;3.60;91.60;;;;;;5072315;28;20496;-69
2021/03/01 01:57:01;;;;;;;150.47;13.77;;;3.60;91.60;;;;;;5071352;28;20524;-69
2021/03/01 01:59:27;;;;;;;86.13;11.87;;;3.70;91.60;;;;;;5072665;28;20299;-69
2021/03/01 02:01:55;;;;;;;108.77;11.83;;;3.70;91.70;;;;;;5072069;28;20301;-69
2021/03/01 02:04:24;;;;;;;113.30;12.87;;;3.80;91.60;;;;;;5071603;28;20143;-69
2021/03/01 02:07:01;;;;;;;78.07;11.77;;;3.80;91.60;;;;;;5071765;28;20311;-69
2021/03/01 02:09:42;;;;;;;58.53;11.17;;;3.90;91.60;;;;;;5072581;28;20384;-69
2021/03/01 02:12:21;;;;;;;94.65;11.55;;;4.00;91.60;;;;;;5071352;28;20301;-69
2021/03/01 02:15:14;;;;;;;55.30;11.80;;;4.00;91.50;;;;;;5071711;28;20556;-69
2021/03/01 02:17:40;;;;;;;73.73;13.07;;;4.10;91.40;;;;;;5071250;28;20302;-70
2021/03/01 02:20:10;;;;;;;95.63;12.83;;;4.20;91.50;;;;;;5071982;28;20302;-69
2021/03/01 02:22:36;;;;;;;37.40;10.10;;;4.20;91.50;;;;;;5072085;28;20052;-69
2021/03/01 02:25:13;;;;;;;30.43;10.40;;;4.30;91.40;;;;;;5070412;28;20333;-70
2021/03/01 02:28:01;;;;;;;38.70;12.57;;;4.30;91.30;;;;;;5071321;28;20118;-69
2021/03/01 02:30:40;;;;;;;46.63;12.10;;;4.30;91.30;;;;;;5072192;28;20291;-69
2021/03/01 02:33:17;;;;;;;86.17;13.87;;;4.40;91.30;;;;;;5070830;28;20652;-70
2021/03/01 02:35:48;;;;;;;90.40;15.17;;;4.40;91.20;;;;;;5071608;28;20295;-70
2021/03/01 02:38:17;;;;;;;99.05;15.18;;;4.50;91.20;;;;;;5071400;28;20647;-70
2021/03/01 02:40:45;;;;;;;41.53;10.53;;;4.50;91.30;;;;;;5071730;28;20048;-70
2021/03/01 02:43:12;;;;;;;70.20;13.73;;;4.50;91.20;;;;;;5071592;28;20299;-70
2021/03/01 02:45:40;;;;;;;86.20;14.13;;;4.50;91.20;;;;;;5071238;28;20458;-70
2021/03/01 02:48:07;;;;;;;50.07;13.00;;;4.60;91.10;;;;;;5071330;28;20321;-71
2021/03/01 02:50:33;;;;;;;26.70;11.50;;;4.60;91.00;;;;;;5071586;28;20298;-70
2021/03/01 02:52:59;;;;;;;43.80;12.77;;;4.60;91.00;;;;;;5070888;28;20302;-70
2021/03/01 02:55:25;;;;;;;46.57;13.17;;;4.60;91.10;;;;;;5071581;28;20041;-70
2021/03/01 02:57:52;;;;;;;40.27;12.67;;;4.60;91.10;;;;;;5071521;28;20299;-70
2021/03/01 03:00:18;;;;;;;22.40;13.20;;;4.60;91.50;;;;;;5070900;28;20347;-70
2021/03/01 03:02:46;;;;;;;25.33;13.40;;;4.70;91.10;;;;;;5071262;28;20299;-70
2021/03/01 03:05:13;;;;;;;21.30;12.90;;;4.70;91.10;;;;;;5071416;28;20331;-70
2021/03/01 03:07:40;;;;;;;15.70;10.80;;;4.70;91.10;;;;;;5070712;28;20314;-70
2021/03/01 03:10:08;;;;;;;13.60;9.27;;;4.70;91.10;;;;;;5071421;28;20371;-70
2021/03/01 03:12:37;;;;;;;20.47;12.87;;;4.70;91.00;;;;;;5071510;28;20798;-70
2021/03/01 03:15:04;;;;;;;19.60;12.87;;;4.80;91.00;;;;;;5070727;28;20291;-70
2021/03/01 03:17:33;;;;;;;15.70;11.80;;;4.80;91.00;;;;;;5075557;28;20309;-70
2021/03/01 03:20:01;;;;;;;14.83;10.47;;;4.90;90.90;;;;;;5075246;28;20302;-70
2021/03/01 03:22:27;;;;;;;13.40;10.17;;;4.90;90.90;;;;;;5074690;28;20381;-70
2021/03/01 03:24:52;;;;;;;17.90;11.67;;;4.90;90.80;;;;;;5075139;28;20432;-70
2021/03/01 03:27:18;;;;;;;15.73;11.83;;;5.00;90.80;;;;;;5074776;28;20067;-70
2021/03/01 03:29:44;;;;;;;16.73;11.10;;;5.00;90.70;;;;;;5074321;28;20098;-70
2021/03/01 03:32:09;;;;;;;16.10;11.43;;;5.00;90.80;;;;;;5075066;28;20298;-70
2021/03/01 03:34:35;;;;;;;15.30;11.27;;;5.00;90.80;;;;;;5074573;28;20067;-70
2021/03/01 03:37:11;;;;;;;15.57;10.90;;;5.10;90.70;;;;;;5075019;28;20493;-70
2021/03/01 03:39:43;;;;;;;16.10;11.30;;;5.10;90.70;;;;;;5074902;28;20543;-70
2021/03/01 03:42:11;;;;;;;14.80;11.45;;;5.10;90.70;;;;;;5074093;28;20283;-70
2021/03/01 03:44:39;;;;;;;13.90;11.33;;;5.10;90.70;;;;;;5074824;28;20099;-70
2021/03/01 03:47:06;;;;;;;13.40;9.20;;;5.00;90.70;;;;;;5074775;28;20307;-70
2021/03/01 03:49:36;;;;;;;15.40;11.70;;;5.00;90.70;;;;;;5074364;28;20287;-70
2021/03/01 03:52:03;;;;;;;12.73;9.43;;;5.10;90.70;;;;;;5074675;28;20299;-70
2021/03/01 03:54:32;;;;;;;16.27;11.47;;;5.10;90.70;;;;;;5074846;28;20366;-70
2021/03/01 03:57:01;;;;;;;14.33;9.77;;;5.10;90.80;;;;;;5073638;28;20780;-70
2021/03/01 03:59:32;;;;;;;12.90;9.77;;;5.10;90.80;;;;;;5074475;28;20326;-70
2021/03/01 04:01:59;;;;;;;13.30;10.27;;;5.10;90.70;;;;;;5074487;28;20361;-70
2021/03/01 04:04:26;;;;;;;13.97;10.03;;;5.20;90.70;;;;;;5073824;28;20140;-70
2021/03/01 04:06:52;;;;;;;15.17;10.10;;;5.20;90.80;;;;;;5074444;28;20357;-70
2021/03/01 04:09:21;;;;;;;16.03;11.77;;;5.20;90.80;;;;;;5074229;28;20357;-70
2021/03/01 04:11:48;;;;;;;17.03;11.80;;;5.30;90.80;;;;;;5073648;28;20302;-70
2021/03/01 04:14:16;;;;;;;20.93;13.27;;;5.20;90.80;;;;;;5074460;28;20299;-70
2021/03/01 04:16:46;;;;;;;17.57;12.07;;;5.20;90.70;;;;;;5074438;28;20348;-69
2021/03/01 04:19:15;;;;;;;17.27;12.30;;;5.30;90.70;;;;;;5074444;28;20378;-70
2021/03/01 04:21:42;;;;;;;19.93;12.90;;;5.20;90.70;;;;;;5074032;28;20489;-70
2021/03/01 04:24:09;;;;;;;20.53;13.17;;;5.20;90.70;;;;;;5073255;28;20341;-70
2021/03/01 04:26:35;;;;;;;20.20;13.73;;;5.20;90.60;;;;;;5073104;28;20380;-70
2021/03/01 04:29:02;;;;;;;18.77;11.97;;;5.10;90.70;;;;;;5073988;28;20306;-70
2021/03/01 04:31:29;;;;;;;19.33;13.30;;;5.10;90.70;;;;;;5073554;28;20295;-70
2021/03/01 04:33:59;;;;;;;18.27;13.67;;;5.10;90.70;;;;;;5073831;28;20779;-70
2021/03/01 04:36:26;;;;;;;16.30;12.50;;;5.10;90.70;;;;;;5074003;28;20326;-70
2021/03/01 04:38:51;;;;;;;17.03;12.57;;;5.00;90.70;;;;;;5072863;28;20301;-70
2021/03/01 04:41:18;;;;;;;18.73;12.53;;;5.10;90.70;;;;;;5073923;28;20303;-70
2021/03/01 04:43:45;;;;;;;18.13;12.27;;;5.10;90.70;;;;;;5073810;28;20044;-70
2021/03/01 04:46:12;;;;;;;18.17;12.00;;;5.10;90.60;;;;;;5073006;28;20360;-70
2021/03/01 04:48:38;;;;;;;17.13;12.67;;;5.10;90.60;;;;;;5073823;28;20350;-69
2021/03/01 04:51:05;;;;;;;19.30;13.57;;;5.20;91.00;;;;;;5073787;28;20320;-70
2021/03/01 04:53:33;;;;;;;17.10;11.87;;;5.10;90.70;;;;;;5072740;28;20787;-70
2021/03/01 04:56:02;;;;;;;14.93;10.50;;;5.10;90.70;;;;;;5073296;28;20814;-70
2021/03/01 04:58:29;;;;;;;18.70;12.20;;;5.10;90.70;;;;;;5073778;28;20298;-70
2021/03/01 05:00:56;;;;;;;17.97;13.40;;;5.10;90.70;;;;;;5072587;28;20334;-70
2021/03/01 05:03:21;;;;;;;17.53;12.27;;;5.00;90.70;;;;;;5073105;28;20850;-70
2021/03/01 05:05:47;;;;;;;19.80;13.17;;;5.00;90.70;;;;;;5072974;28;20448;-70
2021/03/01 05:08:15;;;;;;;18.33;13.50;;;5.00;90.70;;;;;;5072382;28;20049;-70
2021/03/01 05:10:42;;;;;;;17.13;12.30;;;5.00;90.80;;;;;;5073362;28;20444;-70
2021/03/01 05:13:08;;;;;;;18.00;12.07;;;5.00;90.70;;;;;;5072383;28;20377;-70
2021/03/01 05:15:34;;;;;;;16.83;11.87;;;5.00;90.70;;;;;;5073303;28;20702;-70
2021/03/01 05:18:00;;;;;;;17.17;12.23;;;5.00;90.70;;;;;;5072814;28;20477;-70
2021/03/01 05:20:26;;;;;;;20.13;12.73;;;5.00;90.80;;;;;;5072122;28;20322;-70
2021/03/01 05:22:52;;;;;;;19.57;13.00;;;5.00;90.70;;;;;;5072983;28;20334;-69
2021/03/01 05:25:17;;;;;;;17.80;13.67;;;5.00;90.80;;;;;;5072810;28;20538;-70
2021/03/01 05:27:43;;;;;;;18.33;14.30;;;5.00;90.70;;;;;;5067620;28;20528;-70
2021/03/01 05:30:10;;;;;;;18.50;13.67;;;5.00;90.70;;;;;;5072848;28;20493;-70
2021/03/01 05:32:37;;;;;;;18.77;13.43;;;5.00;90.80;;;;;;5072676;28;20101;-70
2021/03/01 05:35:05;;;;;;;19.90;14.70;;;5.00;90.80;;;;;;5071681;28;20287;-70
2021/03/01 05:37:30;;;;;;;19.37;13.80;;;5.00;90.80;;;;;;5072854;28;20326;-69
2021/03/01 05:39:56;;;;;;;22.30;14.50;;;5.00;90.80;;;;;;5072264;28;20676;-69
2021/03/01 05:42:24;;;;;;;19.23;14.00;;;5.00;90.80;;;;;;5071948;28;20501;-69
2021/03/01 05:44:50;;;;;;;19.33;13.70;;;5.00;90.80;;;;;;5072033;28;20505;-70
2021/03/01 05:47:18;;;;;;;19.07;13.33;;;5.00;90.90;;;;;;5072401;28;20378;-70
2021/03/01 05:49:44;;;;;;;22.17;14.67;;;4.90;90.90;;;;;;5071300;28;20056;-68
2021/03/01 05:52:14;;;;;;;20.33;13.20;;;4.90;90.90;;;;;;5072246;28;20301;-69
2021/03/01 05:54:41;;;;;;;20.53;12.83;;;5.00;91.00;;;;;;5071948;28;20390;-68
2021/03/01 05:57:07;;;;;;;17.53;11.77;;;5.00;91.00;;;;;;5071508;28;20305;-68
2021/03/01 05:59:33;;;;;;;23.00;12.47;;;5.00;90.90;;;;;;5071885;28;20291;-68
2021/03/01 06:01:59;;;;;;;20.57;12.30;;;5.00;90.90;;;;;;5071549;28;20405;-68
2021/03/01 06:04:26;;;;;;;19.00;13.00;;;5.00;91.00;;;;;;5071367;28;20305;-68
2021/03/01 06:06:52;;;;;;;23.80;12.23;;;5.00;91.00;;;;;;5072109;28;20066;-68
2021/03/01 06:09:18;;;;;;;22.50;13.03;;;5.00;91.00;;;;;;5071296;28;20299;-68
2021/03/01 06:11:45;;;;;;;22.27;13.70;;;5.00;91.10;;;;;;5071965;28;20044;-67
2021/03/01 06:14:11;;;;;;;23.53;13.50;;;5.00;91.00;;;;;;5071718;28;20302;-67
2021/03/01 06:17:09;;;;;;;22.07;13.10;;;4.90;91.10;;;;;;5070769;28;20447;-68
2021/03/01 06:19:47;;;;;;;24.03;13.37;;;4.90;91.20;;;;;;5072012;28;20064;-67
2021/03/01 06:22:13;;;;;;;29.37;13.47;;;4.80;91.20;;;;;;5071834;28;20307;-67
2021/03/01 06:24:39;;;;;;;28.53;13.57;;;4.80;91.20;;;;;;5071004;28;20404;-68
2021/03/01 06:27:07;;;;;;;19.43;11.53;;;4.80;91.30;;;;;;5071416;28;20656;-69
2021/03/01 06:29:33;;;;;;;31.03;11.87;;;4.80;91.30;;;;;;5072014;28;20048;-68
2021/03/01 06:31:59;;;;;;;30.07;12.47;;;4.80;91.30;;;;;;5070776;28;20771;-69
2021/03/01 06:34:26;;;;;;;22.37;12.30;;;4.80;91.30;;;;;;5071526;28;20055;-69
2021/03/01 06:37:08;;;;;;;22.03;11.77;;;4.80;91.30;;;;;;5071579;28;20294;-69
2021/03/01 06:39:38;;;;;;;24.40;11.27;;;4.90;91.40;;;;;;5070955;28;20071;-69
2021/03/01 06:42:16;;;;;;;23.43;10.50;;;4.90;91.40;;;;;;5071508;28;20327;-69
2021/03/01 06:45:08;;;;;;;18.80;8.90;;;4.90;91.40;;;;;;5070385;28;20791;-68
2021/03/01 06:48:02;;;;;;;10.77;5.00;;;4.90;91.50;;;;;;5071289;28;20834;-68
2021/03/01 06:50:31;;;;;;;9.97;6.30;;;4.90;91.30;;;;;;5070728;28;20049;-68
2021/03/01 06:53:01;;;;;;;8.17;3.83;;;4.70;91.40;;;;;;5070572;28;20334;-68
2021/03/01 06:55:27;;;;;;;6.80;3.03;;;4.70;91.40;;;;;;5071293;28;20291;-68
2021/03/01 06:57:53;;;;;;;5.90;3.10;;;4.60;91.30;;;;;;5070918;28;20943;-68
2021/03/01 07:00:27;;;;;;;4.47;2.70;;;4.60;91.50;;;;;;5070349;28;20336;-68
2021/03/01 07:02:54;;;;;;;9.00;4.03;;;4.60;91.50;;;;;;5070940;28;20076;-68
2021/03/01 07:05:21;;;;;;;6.27;3.93;;;4.60;91.50;;;;;;5071048;28;20299;-69
2021/03/01 07:07:46;;;;;;;5.27;3.27;;;4.60;91.60;;;;;;5070044;28;20313;-69
2021/03/01 07:10:12;;;;;;;9.33;4.00;;;4.60;91.70;;;;;;5070925;28;20659;-68
2021/03/01 07:12:44;;;;;;;7.70;3.70;;;4.60;91.70;;;;;;5070932;28;20214;-68
2021/03/01 07:15:12;;;;;;;5.10;2.87;;;4.60;91.70;;;;;;5070826;28;20053;-68
2021/03/01 07:17:40;;;;;;;5.97;2.70;;;4.70;91.70;;;;;;5071289;28;20299;-68
2021/03/01 07:20:14;;;;;;;5.23;2.47;;;4.70;91.70;;;;;;5070379;28;20716;-68
2021/03/01 07:22:44;;;;;;;5.43;2.97;;;4.80;91.70;;;;;;5071069;28;20303;-68
2021/03/01 07:25:12;;;;;;;5.10;3.70;;;4.80;91.60;;;;;;5070897;28;20364;-68
2021/03/01 07:27:40;;;;;;;4.30;2.90;;;4.80;91.70;;;;;;5070062;28;20333;-68
2021/03/01 07:30:09;;;;;;;4.87;2.73;;;4.80;91.80;;;;;;5070694;28;20779;-68
2021/03/01 07:32:40;;;;;;;5.97;2.80;;;4.90;91.90;;;;;;5071051;28;20371;-68
2021/03/01 07:35:08;;;;;;;6.07;2.50;;;4.90;91.80;;;;;;5070157;28;20356;-68
2021/03/01 07:37:36;;;;;;;6.90;2.33;;;4.90;91.80;;;;;;5071261;28;20094;-68
2021/03/01 07:40:06;;;;;;;5.43;3.50;;;5.00;91.90;;;;;;5070163;28;20864;-67
2021/03/01 07:42:33;;;;;;;4.33;2.70;;;5.00;91.80;;;;;;5070475;28;20652;-68
2021/03/01 07:45:00;;;;;;;5.83;3.33;;;5.10;91.80;;;;;;5070859;28;20294;-68
2021/03/01 07:47:29;;;;;;;4.87;2.80;;;5.10;92.00;;;;;;5070826;28;20351;-68
2021/03/01 07:49:55;;;;;;;8.37;3.57;;;5.20;92.00;;;;;;5070189;28;20373;-68
2021/03/01 07:52:33;;;;;;;8.93;4.20;;;5.20;91.90;;;;;;5070655;28;20303;-69
2021/03/01 07:55:06;;;;;;;7.13;3.50;;;5.30;91.90;;;;;;5069788;28;20343;-69
2021/03/01 07:57:34;;;;;;;6.77;3.40;;;5.30;92.00;;;;;;5071053;28;20376;-68
2021/03/01 08:00:20;;;;;;;4.70;2.97;;;5.40;91.90;;;;;;5070846;28;20345;-68
2021/03/01 08:02:46;;;;;;;6.40;3.10;;;5.40;91.80;;;;;;5072844;28;20774;-69
2021/03/01 08:05:26;;;;;;;5.30;2.90;;;5.40;91.70;;;;;;5074208;28;20325;-68
2021/03/01 08:07:53;;;;;;;5.83;3.00;;;5.40;91.80;;;;;;5074053;28;20052;-67
2021/03/01 08:10:40;;;;;;;5.10;3.43;;;5.50;91.70;;;;;;5073472;28;20309;-68
2021/03/01 08:13:07;;;;;;;4.87;3.07;;;5.50;91.70;;;;;;5073369;28;20617;-69
2021/03/01 08:15:37;;;;;;;6.33;3.50;;;5.50;91.70;;;;;;5074278;28;20287;-68
2021/03/01 08:18:04;;;;;;;5.60;3.87;;;5.50;91.70;;;;;;5073155;28;20307;-68
2021/03/01 08:20:32;;;;;;;7.17;4.00;;;5.60;91.70;;;;;;5074108;28;20779;-68
2021/03/01 08:28:16;;;;;;;7.13;4.10;;;5.60;91.70;;;;;;5070066;28;20501;-69
2021/03/01 08:30:52;;;;;;;14.30;4.60;;;5.60;91.80;;;;;;5071891;28;20647;-68
2021/03/01 08:33:18;;;;;;;7.53;3.90;;;5.70;91.80;;;;;;5072522;28;20102;-68
2021/03/01 08:35:49;;;;;;;7.90;3.80;;;5.70;91.70;;;;;;5072143;28;20807;-69
2021/03/01 08:38:36;;;;;;;10.53;4.30;;;5.70;91.70;;;;;;5071379;28;20299;-68
2021/03/01 08:41:02;;;;;;;7.33;3.67;;;5.70;91.80;;;;;;5071184;28;20664;-68
2021/03/01 08:43:37;;;;;;;5.43;3.30;;;5.80;91.70;;;;;;5072622;28;20303;-68
2021/03/01 08:46:04;;;;;;;4.50;3.00;;;5.80;91.70;;;;;;5071185;28;20048;-69
2021/03/01 08:48:30;;;;;;;5.47;3.40;;;5.80;91.60;;;;;;5072358;28;20395;-68
2021/03/01 08:50:56;;;;;;;5.27;3.67;;;5.80;91.60;;;;;;5071989;28;20303;-69
2021/03/01 08:53:29;;;;;;;5.43;3.33;;;5.80;91.70;;;;;;5071313;28;20370;-68
2021/03/01 08:55:56;;;;;;;9.93;3.70;;;5.80;91.70;;;;;;5071822;28;20485;-68
2021/03/01 08:58:23;;;;;;;5.97;3.50;;;5.80;91.60;;;;;;5070973;28;20825;-67
2021/03/01 09:00:52;;;;;;;6.00;3.30;;;5.80;91.70;;;;;;5072750;28;20334;-68
2021/03/01 09:03:25;;;;;;;4.83;2.90;;;5.80;91.60;;;;;;5073029;28;20302;-69
2021/03/01 09:06:11;;;;;;;5.77;3.27;;;5.70;91.50;;;;;;5072033;28;20294;-68
2021/03/01 09:08:38;;;;;;;6.53;3.67;;;5.70;91.60;;;;;;5070703;28;20385;-68
2021/03/01 09:11:13;;;;;;;9.57;4.07;;;5.80;91.60;;;;;;5073198;28;20299;-68
2021/03/01 09:13:39;;;;;;;10.27;4.07;;;5.90;91.60;;;;;;5071482;28;20299;-68
2021/03/01 09:16:07;;;;;;;7.87;4.33;;;5.80;91.50;;;;;;5072094;28;20310;-68
2021/03/01 09:18:34;;;;;;;9.70;4.63;;;5.80;91.40;;;;;;5073255;28;20287;-66
2021/03/01 09:21:00;;;;;;;13.03;4.33;;;5.70;91.50;;;;;;5072027;28;20311;-66
2021/03/01 09:23:54;;;;;;;10.30;7.07;;;5.70;91.70;;;;;;5073258;28;20344;-67
2021/03/01 09:26:32;;;;;;;12.75;4.53;;;5.70;91.80;;;;;;5071081;28;20310;-67
2021/03/01 09:29:15;;;;;;;11.50;3.90;;;5.80;91.80;;;;;;5072312;28;20060;-67
2021/03/01 09:31:48;;;;;;;6.13;3.43;;;5.90;91.70;;;;;;5072724;28;20294;-68
2021/03/01 09:34:18;;;;;;;9.43;5.37;;;5.90;91.60;;;;;;5072061;28;20330;-69
2021/03/01 09:36:47;;;;;;;11.93;4.03;;;5.90;91.50;;;;;;5072223;28;20694;-69
2021/03/01 09:39:27;;;;;;;9.97;4.67;;;5.90;91.60;;;;;;5071380;28;20783;-68
2021/03/01 09:41:54;;;;;;;7.17;5.77;;;5.90;91.90;;;;;;5071562;28;20303;-66
2021/03/01 09:44:32;;;;;;;8.53;5.20;;;5.90;91.60;;;;;;5072239;28;20378;-67
2021/03/01 09:46:59;;;;;;;9.90;4.17;;;5.90;91.50;;;;;;5071988;28;20303;-66
2021/03/01 09:49:26;;;;;;;7.00;4.00;;;6.00;91.50;;;;;;5071354;28;20669;-67
2021/03/01 09:51:52;;;;;;;8.70;5.00;;;6.10;91.40;;;;;;5072424;28;20311;-68
2021/03/01 09:54:21;;;;;;;7.17;4.67;;;6.10;91.30;;;;;;5072265;28;20306;-67
2021/03/01 09:56:50;;;;;;;7.50;4.57;;;6.10;91.30;;;;;;5072138;28;20360;-68
2021/03/01 09:59:32;;;;;;;8.37;4.63;;;6.10;91.20;;;;;;5071466;28;20783;-68
2021/03/01 10:02:06;;;;;;;12.95;6.13;;;6.10;91.10;;;;;;5071095;28;20297;-69
2021/03/01 10:04:32;;;;;;;14.13;5.67;;;6.10;91.10;;;;;;5072313;28;20390;-68
2021/03/01 10:07:23;;;;;;;8.37;6.00;;;6.10;91.20;;;;;;5071458;28;20291;-68
2021/03/01 10:09:49;;;;;;;9.93;5.83;;;6.20;91.10;;;;;;5057747;28;20484;-68
2021/03/01 10:12:16;;;;;;;8.80;5.20;;;6.10;90.90;;;;;;5071905;28;20851;-68
2021/03/01 10:14:42;;;;;;;8.73;5.47;;;6.10;90.90;;;;;;5071968;28;20303;-68
2021/03/01 10:17:18;;;;;;;9.37;5.17;;;6.10;90.90;;;;;;5071200;28;20355;-69
2021/03/01 10:19:44;;;;;;;9.17;5.37;;;6.30;91.00;;;;;;5071401;28;20294;-68
2021/03/01 10:22:10;;;;;;;11.07;4.93;;;6.40;90.90;;;;;;5071276;28;20295;-68
2021/03/01 10:24:47;;;;;;;9.23;5.50;;;6.50;90.70;;;;;;5069351;28;20310;-68
2021/03/01 10:27:15;;;;;;;7.80;4.77;;;6.60;90.20;;;;;;5068783;28;20386;-68
2021/03/01 10:29:42;;;;;;;8.77;5.57;;;6.50;90.20;;;;;;5070267;28;20597;-68
2021/03/01 10:32:24;;;;;;;7.90;5.27;;;6.50;90.30;;;;;;5070668;28;20732;-69
2021/03/01 10:34:51;;;;;;;9.95;5.88;;;6.50;90.30;;;;;;5054404;28;20392;-68
2021/03/01 10:37:19;;;;;;;8.23;4.60;;;6.40;90.40;;;;;;5067951;28;20107;-69
2021/03/01 10:39:47;;;;;;;10.57;5.53;;;6.40;90.50;;;;;;5071008;28;20324;-69
2021/03/01 10:42:18;;;;;;;10.47;5.57;;;6.50;90.60;;;;;;5071022;28;20786;-68
2021/03/01 10:44:46;;;;;;;8.63;5.33;;;6.50;90.40;;;;;;5069702;28;20302;-68
2021/03/01 10:47:32;;;;;;;12.87;5.90;;;6.60;90.50;;;;;;5070569;28;20287;-68
2021/03/01 10:50:00;;;;;;;8.90;5.17;;;6.60;90.40;;;;;;5071484;28;20699;-67
2021/03/01 10:52:27;;;;;;;7.60;4.87;;;6.70;90.40;;;;;;5070196;28;20698;-68
2021/03/01 10:54:57;;;;;;;10.27;5.10;;;6.80;90.30;;;;;;5070872;28;20295;-69
2021/03/01 10:57:23;;;;;;;9.90;4.93;;;6.80;90.10;;;;;;5070302;28;20299;-69
2021/03/01 10:59:51;;;;;;;11.20;5.67;;;6.90;90.10;;;;;;5067920;28;20291;-67
2021/03/01 11:02:17;;;;;;;7.87;4.90;;;7.00;89.60;;;;;;5070736;28;20299;-70
2021/03/01 11:04:43;;;;;;;11.67;5.53;;;7.00;89.50;;;;;;5070669;28;20310;-69
2021/03/01 11:07:09;;;;;;;9.97;5.90;;;7.00;89.80;;;;;;5070946;28;20294;-69
2021/03/01 11:09:34;;;;;;;9.93;4.73;;;7.10;89.70;;;;;;5071229;28;20049;-70
2021/03/01 11:12:03;;;;;;;11.00;6.23;;;7.10;89.50;;;;;;5070430;28;20076;-70
2021/03/01 11:14:28;;;;;;;10.10;6.40;;;7.00;89.80;;;;;;5071198;28;20466;-69
2021/03/01 11:16:54;;;;;;;9.00;5.80;;;7.20;90.10;;;;;;5070953;28;20390;-70
2021/03/01 11:19:19;;;;;;;9.93;6.23;;;7.40;89.40;;;;;;5070527;28;20060;-70
2021/03/01 11:21:47;;;;;;;8.90;6.30;;;7.60;88.40;;;;;;5071182;28;20044;-70
2021/03/01 11:24:13;;;;;;;12.43;6.33;;;7.70;88.00;;;;;;5070921;28;20064;-70
2021/03/01 11:26:39;;;;;;;11.87;7.60;;;7.70;87.40;;;;;;5070138;28;20323;-69
2021/03/01 11:29:05;;;;;;;11.20;6.63;;;7.60;87.00;;;;;;5070965;28;20714;-69
2021/03/01 11:31:33;;;;;;;11.00;7.03;;;7.40;87.10;;;;;;5071100;28;20390;-69
2021/03/01 11:34:03;;;;;;;12.53;7.50;;;7.30;87.30;;;;;;5070518;28;20538;-70
2021/03/01 11:36:29;;;;;;;10.00;7.40;;;7.20;87.30;;;;;;5072862;28;20303;-69
2021/03/01 11:38:55;;;;;;;11.73;7.30;;;7.10;87.70;;;;;;5074550;28;20295;-69
2021/03/01 11:41:20;;;;;;;10.17;6.53;;;7.10;88.00;;;;;;5074043;28;20094;-69
2021/03/01 11:43:48;;;;;;;9.93;7.40;;;7.10;87.70;;;;;;5074539;28;20072;-69
2021/03/01 11:46:13;;;;;;;11.40;6.90;;;7.20;88.20;;;;;;5074760;28;20047;-70
2021/03/01 11:48:39;;;;;;;10.87;7.33;;;7.50;87.70;;;;;;5073726;28;20310;-70
2021/03/01 11:51:06;;;;;;;12.87;7.83;;;7.60;85.80;;;;;;5074371;28;20056;-69
2021/03/01 11:53:31;;;;;;;10.17;7.07;;;7.50;85.20;;;;;;5074621;28;20298;-69
2021/03/01 11:55:57;;;;;;;8.90;5.60;;;7.50;85.50;;;;;;5073505;28;20150;-69
2021/03/01 11:58:22;;;;;;;10.43;6.13;;;7.50;84.90;;;;;;5074427;28;20048;-69
2021/03/01 12:00:48;;;;;;;11.10;6.47;;;7.40;84.80;;;;;;5074257;28;20048;-69
2021/03/01 12:03:14;;;;;;;13.07;7.23;;;7.40;84.40;;;;;;5073733;28;20174;-70
2021/03/01 12:05:41;;;;;;;13.40;6.67;;;7.50;84.40;;;;;;5073298;28;20408;-70
2021/03/01 12:08:08;;;;;;;10.47;6.90;;;7.50;84.10;;;;;;5072009;28;20102;-70
2021/03/01 12:10:35;;;;;;;10.50;6.63;;;7.60;85.20;;;;;;5071782;28;20668;-70
2021/03/01 12:13:00;;;;;;;10.73;5.87;;;7.80;83.90;;;;;;5073514;28;20299;-68
2021/03/01 12:15:27;;;;;;;9.77;5.90;;;7.90;83.00;;;;;;5073229;28;20295;-69
2021/03/01 12:17:53;;;;;;;11.43;6.77;;;7.90;83.20;;;;;;5073897;28;20049;-69
2021/03/01 12:20:19;;;;;;;11.73;6.43;;;8.00;83.10;;;;;;5074049;28;20321;-70
2021/03/01 12:22:44;;;;;;;10.43;5.97;;;8.00;82.10;;;;;;5073222;28;20053;-68
2021/03/01 12:25:10;;;;;;;13.53;6.50;;;8.10;82.00;;;;;;5073568;28;20786;-69
2021/03/01 12:27:36;;;;;;;11.67;6.40;;;8.10;82.10;;;;;;5073728;28;20060;-68
2021/03/01 12:30:04;;;;;;;10.40;6.90;;;8.20;82.20;;;;;;5073120;28;20040;-69
2021/03/01 12:32:30;;;;;;;11.57;6.67;;;8.20;82.00;;;;;;5074403;28;20052;-69
2021/03/01 12:34:56;;;;;;;10.63;5.63;;;8.20;82.00;;;;;;5073892;28;20751;-69
2021/03/01 12:37:22;;;;;;;10.00;6.00;;;8.30;81.40;;;;;;5073198;28;20079;-68
2021/03/01 12:39:48;;;;;;;13.67;6.67;;;8.30;81.50;;;;;;5073574;28;20767;-69
2021/03/01 12:42:13;;;;;;;8.23;5.90;;;8.30;81.60;;;;;;5073577;28;20135;-69
2021/03/01 12:44:39;;;;;;;10.03;5.80;;;8.30;81.30;;;;;;5072904;28;20474;-69
2021/03/01 12:47:05;;;;;;;7.73;5.27;;;8.30;81.40;;;;;;5073303;28;20052;-69
2021/03/01 12:49:31;;;;;;;7.40;4.80;;;8.40;81.30;;;;;;5072912;28;20394;-68
2021/03/01 12:51:57;;;;;;;9.77;4.90;;;8.40;81.30;;;;;;5072620;28;20055;-69
2021/03/01 12:54:23;;;;;;;8.20;4.20;;;8.40;81.10;;;;;;5073000;28;20337;-68
2021/03/01 12:56:49;;;;;;;6.67;4.23;;;8.50;80.60;;;;;;5072864;28;20355;-69